首页
METAR-TAF:

METAR-TAF

机场 :

大福克斯国际机场

大福克斯, 北达科他州, 美国

纬度: 47-56-53N, 经度: 097-10-57W, 海拔: 257米

当前天气观测

该预报发布于35分钟前的21:53 UTC
风速13节,风向西转西北
温度 10°C
湿度 57%
气压 1008 hPa
能見度: 16.1公里
少量云层高于4300英尺
阴天层高于5500英尺

METAR: KGFK 172153Z 30013KT 10SM FEW043 OVC055 10/02 A2977 RMK AO2 SLP090 T01000017

时间: 17:28 (22:28 UTC)

预报

该预报发布于4小时和47分钟前的17:41 UTC
预报有效从17日的 18点(UTC)到 18日的 18点(UTC)
风速11节,风向西北
能見度: 10公里
多云层高于1600英尺
阴天层高于2300英尺
从 17日的 1900点(UTC)
风速17节,风向西转西北,有时为25节阵风
能見度: 10公里
阴天层高于3500英尺
从 18日的 0100点(UTC)
风速11节,风向西
能見度: 10公里
散云层高于25000英尺
从 18日的 1000点(UTC)
风速15节,风向西,有时为24节阵风
能見度: 10公里
散云层高于4500英尺
从 18日的 1200点(UTC)
风速17节,风向西
能見度: 10公里
多云层高于2700英尺
从 18日的 1600点(UTC)
风速22节,风向西,有时为30节阵风
能見度: 10公里
多云层高于2500英尺

TAF: KGFK 171741Z 1718/1818 31011KT P6SM BKN016 OVC023 FM171900 30017G25KT P6SM OVC035 FM180100 26011KT P6SM SCT250 FM181000 26015G24KT P6SM SCT045 FM181200 26017KT P6SM BKN027 FM181600 28022G30KT P6SM BKN025

超过4000个机场的气象观测和天气预报(METAR&TAF报告)。

可查询的气象台以黄色和红色小点在地图上表示。

将鼠标移到小点上方,可查看气象台名称。

然后点击查看天气观测和预报。

如需切换地图:点击带黑十字的绿色按钮放大地图;点击带横线的绿色按钮缩小地图;或者点击绿色箭头查看邻近地区的地图。


METAR-TAF: